Time;durP1;ratioP1;P1;durP2;ratioP2;P2;SDS_P1;SDS_P2;PMS_P1;PMS_P2;Temp;Humidity;BMP_temperature;BMP_pressure;BME280_temperature;BME280_humidity;BME280_pressure;Samples;Min_cycle;Max_cycle;Signal;HPM_P1;HPM_P2
2022/01/27 00:02:45;;;;;;;;;60.33;46.00;;;;;4.45;69.99;102652.06;4989813;28;45446;-82
2022/01/27 00:05:20;;;;;;;;;60.67;48.67;;;;;4.61;69.61;102675.72;4987925;28;45373;-81
2022/01/27 00:08:08;;;;;;;;;60.00;49.33;;;;;4.60;69.55;102666.09;4987686;28;45457;-81
2022/01/27 00:13:16;;;;;;;;;59.00;45.33;;;;;4.71;69.65;102685.94;4987551;28;45437;-81
2022/01/27 00:15:45;;;;;;;;;55.00;46.67;;;;;4.74;69.62;102679.97;4987949;28;45264;-83
2022/01/27 00:18:18;;;;;;;;;62.33;48.33;;;;;4.40;69.72;102632.63;4987395;28;45497;-79
2022/01/27 00:20:48;;;;;;;;;57.00;45.33;;;;;4.80;69.08;102675.16;4988498;28;45643;-81
2022/01/27 00:23:15;;;;;;;;;49.33;42.67;;;;;4.72;69.16;102674.66;4992678;28;45381;-82
2022/01/27 00:25:41;;;;;;;;;59.67;46.00;;;;;4.79;69.02;102679.47;4987650;28;45282;-84
2022/01/27 00:28:07;;;;;;;;;51.67;42.00;;;;;4.81;69.22;102666.50;4989974;28;45532;-81
2022/01/27 00:30:38;;;;;;;;;58.33;46.67;;;;;4.84;69.68;102669.34;4991655;28;46032;-82
2022/01/27 00:33:05;;;;;;;;;57.67;46.00;;;;;4.85;69.25;102663.28;4988130;28;45504;-81
2022/01/27 00:35:31;;;;;;;;;56.00;45.00;;;;;4.78;69.00;102650.66;4986482;28;45334;-82
2022/01/27 00:37:58;;;;;;;;;60.33;46.67;;;;;4.86;68.87;102659.88;4987890;28;45271;-79
2022/01/27 00:40:23;;;;;;;;;52.33;39.00;;;;;4.42;69.39;102584.03;4988386;28;45520;-84
2022/01/27 00:42:48;;;;;;;;;55.00;43.00;;;;;4.82;69.79;102647.41;4987962;28;45717;-80
2022/01/27 00:45:14;;;;;;;;;65.33;49.33;;;;;4.89;69.58;102664.38;4987308;28;45514;-81
2022/01/27 00:47:40;;;;;;;;;58.67;46.67;;;;;4.88;69.60;102646.91;4987806;28;45481;-79
2022/01/27 00:50:06;;;;;;;;;52.67;41.33;;;;;4.88;69.22;102649.50;4987860;28;45439;-81
2022/01/27 00:52:42;;;;;;;;;52.00;45.00;;;;;4.79;69.34;102628.97;4989023;28;45428;-80
2022/01/27 00:55:09;;;;;;;;;56.00;45.33;;;;;4.25;69.31;102536.03;4989015;28;45482;-80
2022/01/27 01:00:09;;;;;;;;;52.33;43.00;;;;;4.94;68.91;102629.91;4991080;28;45918;-78
2022/01/27 01:05:59;;;;;;;;;52.67;42.67;;;;;4.91;68.86;102614.03;4990126;28;45624;-80
2022/01/27 01:12:17;;;;;;;;;56.33;42.00;;;;;4.97;68.90;102619.63;4989481;28;45713;-80
2022/01/27 01:17:19;;;;;;;;;52.00;43.00;;;;;5.01;68.70;102626.84;4888427;29;45551;-83
2022/01/27 01:19:38;;;;;;;;;62.00;46.00;;;;;4.85;68.85;102587.56;4885430;29;45320;-84
2022/01/27 01:32:51;;;;;;;;;58.33;49.00;;;;;4.43;68.60;102516.28;4920228;28;46090;-85
2022/01/27 01:35:26;;;;;;;;;46.67;40.00;;;;;4.96;69.03;102596.03;4918779;28;45549;-86
2022/01/27 01:37:52;;;;;;;;;60.67;47.00;;;;;4.58;69.20;102543.31;4908921;28;45325;-87
2022/01/27 01:40:18;;;;;;;;;52.33;45.33;;;;;4.52;69.42;102526.38;4907797;29;45273;-81
2022/01/27 01:42:44;;;;;;;;;54.00;44.67;;;;;4.19;69.44;102468.75;4904314;28;47732;-84
2022/01/27 01:45:12;;;;;;;;;57.67;43.00;;;;;4.89;69.11;102586.03;4897862;29;45421;-83
2022/01/27 01:47:38;;;;;;;;;59.33;45.00;;;;;4.54;69.08;102543.03;4898491;29;45384;-85
2022/01/27 01:50:07;;;;;;;;;49.33;40.33;;;;;4.68;69.43;102567.38;4946189;28;45256;-84
2022/01/27 01:52:33;;;;;;;;;57.00;47.33;;;;;4.80;70.04;102589.00;4998959;28;45242;-84
2022/01/27 01:54:59;;;;;;;;;61.00;47.33;;;;;4.79;69.96;102589.81;5001023;28;45300;-83
2022/01/27 01:57:25;;;;;;;;;65.00;47.00;;;;;4.56;70.16;102562.31;5000494;28;46418;-84
2022/01/27 01:59:51;;;;;;;;;51.00;44.33;;;;;4.58;70.36;102558.97;5000983;28;45381;-85
2022/01/27 02:02:16;;;;;;;;;61.67;47.00;;;;;4.71;70.33;102578.00;4998159;28;45429;-82
2022/01/27 02:04:43;;;;;;;;;63.33;49.00;;;;;4.33;70.24;102505.22;4997931;28;45440;-83
2022/01/27 02:07:27;;;;;;;;;69.33;52.33;;;;;4.65;70.81;102567.16;4997682;28;45343;-81
2022/01/27 02:10:16;;;;;;;;;49.33;43.67;;;;;4.39;70.51;102516.94;4998058;28;45278;-82
2022/01/27 02:18:11;;;;;;;;;55.67;42.67;;;;;4.57;71.11;102570.25;4983505;28;45317;-83
2022/01/27 02:20:40;;;;;;;;;64.67;52.33;;;;;4.57;71.36;102580.69;4978432;28;45455;-83
2022/01/27 02:23:07;;;;;;;;;73.67;55.33;;;;;4.47;71.38;102557.44;4977865;28;46204;-82
2022/01/27 02:25:33;;;;;;;;;63.67;51.00;;;;;4.52;71.30;102568.13;4977706;28;45513;-81
2022/01/27 02:27:59;;;;;;;;;62.67;48.67;;;;;4.02;72.18;102482.47;4996142;28;45481;-83
2022/01/27 02:30:26;;;;;;;;;72.00;52.33;;;;;4.33;72.22;102549.56;4991522;28;45368;-83
2022/01/27 02:32:52;;;;;;;;;71.33;51.67;;;;;4.31;72.11;102553.78;4978310;28;45396;-82
2022/01/27 02:35:21;;;;;;;;;70.67;52.00;;;;;4.26;72.62;102551.78;4960011;28;46267;-86
2022/01/27 02:37:46;;;;;;;;;67.33;52.67;;;;;3.89;72.51;102485.09;4977977;28;45436;-86
2022/01/27 02:40:23;;;;;;;;;65.33;51.67;;;;;3.90;72.58;102487.81;4979748;28;45376;-86
2022/01/27 02:42:48;;;;;;;;;71.67;54.33;;;;;4.06;73.01;102500.09;4997444;28;46572;-85
2022/01/27 02:45:21;;;;;;;;;67.67;53.33;;;;;3.78;72.96;102442.72;4979456;28;45308;-87
2022/01/27 02:47:46;;;;;;;;;62.00;53.00;;;;;3.96;72.67;102501.22;4978217;28;45322;-87
2022/01/27 02:50:12;;;;;;;;;62.00;52.33;;;;;4.30;73.37;102545.06;4983476;28;45460;-83
2022/01/27 02:52:38;;;;;;;;;65.33;50.67;;;;;4.30;73.17;102532.03;4994743;28;46183;-81
2022/01/27 02:55:04;;;;;;;;;66.33;52.00;;;;;4.29;72.92;102538.03;4987905;28;45472;-82
2022/01/27 02:57:29;;;;;;;;;70.00;53.33;;;;;3.99;73.15;102488.38;4996899;28;45208;-80
2022/01/27 02:59:55;;;;;;;;;69.33;52.67;;;;;4.21;73.18;102519.31;4998232;28;45134;-78
2022/01/27 03:02:22;;;;;;;;;64.00;49.33;;;;;4.21;73.15;102518.41;4986421;28;45202;-81
2022/01/27 03:04:47;;;;;;;;;65.00;52.00;;;;;3.37;73.08;102372.44;4981639;28;45353;-84
2022/01/27 03:07:14;;;;;;;;;70.67;51.67;;;;;4.33;72.89;102539.13;4985259;28;45306;-83
2022/01/27 03:09:39;;;;;;;;;66.00;53.67;;;;;4.37;72.98;102539.38;5002566;28;45512;-84
2022/01/27 03:12:12;;;;;;;;;75.00;55.00;;;;;4.40;72.85;102533.47;4989642;28;45439;-83
2022/01/27 03:14:40;;;;;;;;;50.33;45.67;;;;;4.16;72.91;102478.09;4980995;28;45456;-85
2022/01/27 03:17:06;;;;;;;;;69.00;52.33;;;;;4.37;72.64;102515.00;4981257;28;45428;-85
2022/01/27 03:19:33;;;;;;;;;60.67;49.00;;;;;4.28;72.26;102491.88;4981281;28;45381;-82
2022/01/27 03:22:01;;;;;;;;;66.00;52.00;;;;;4.44;72.89;102530.25;4985860;28;45392;-86
2022/01/27 03:24:26;;;;;;;;;58.33;49.00;;;;;3.92;73.21;102427.97;5001623;28;45347;-86
2022/01/27 03:26:53;;;;;;;;;64.33;49.67;;;;;4.34;72.77;102502.69;5010793;28;45354;-81
2022/01/27 03:29:19;;;;;;;;;56.33;47.33;;;;;4.22;72.55;102497.63;5000606;28;45171;-80
2022/01/27 03:31:45;;;;;;;;;72.00;51.00;;;;;4.46;73.10;102521.69;4987926;28;45904;-83
2022/01/27 03:34:10;;;;;;;;;62.33;51.33;;;;;3.96;72.68;102453.41;4963296;28;45468;-83
2022/01/27 03:36:36;;;;;;;;;66.67;50.00;;;;;4.09;72.83;102475.91;4980013;28;45342;-82
2022/01/27 03:39:02;;;;;;;;;60.00;47.67;;;;;4.40;73.00;102531.78;4962715;28;45420;-83
2022/01/27 03:41:32;;;;;;;;;62.33;51.00;;;;;4.24;72.86;102503.84;4979929;28;46120;-83
2022/01/27 03:43:57;;;;;;;;;63.00;45.00;;;;;4.15;73.10;102489.31;4980737;28;45195;-80
2022/01/27 03:46:23;;;;;;;;;62.00;48.33;;;;;3.64;72.21;102402.81;4979805;28;45323;-82
2022/01/27 03:48:48;;;;;;;;;64.00;50.00;;;;;4.40;73.12;102533.47;4980044;28;45239;-85
2022/01/27 03:51:14;;;;;;;;;62.33;51.00;;;;;4.43;72.87;102525.81;4979549;28;45569;-85
2022/01/27 03:53:39;;;;;;;;;59.67;49.00;;;;;3.87;73.33;102434.59;4980641;28;45526;-84
2022/01/27 03:56:05;;;;;;;;;60.67;48.67;;;;;4.12;72.70;102469.19;4999875;28;45815;-84
2022/01/27 03:58:30;;;;;;;;;57.67;46.33;;;;;3.95;73.08;102454.22;4999678;28;45289;-83
2022/01/27 04:00:56;;;;;;;;;58.67;42.67;;;;;4.07;73.21;102460.16;4993848;28;46114;-81
2022/01/27 04:03:22;;;;;;;;;67.67;54.00;;;;;3.66;72.92;102409.00;4983376;28;45369;-83
2022/01/27 04:05:52;;;;;;;;;68.00;53.67;;;;;4.40;72.76;102523.94;4979278;28;45651;-84
2022/01/27 04:08:18;;;;;;;;;67.67;53.33;;;;;3.77;72.70;102413.97;4993430;28;45229;-84
2022/01/27 04:10:44;;;;;;;;;54.33;46.00;;;;;4.43;72.75;102523.22;4998172;28;46183;-86
2022/01/27 04:13:10;;;;;;;;;42.67;34.67;;;;;4.43;73.07;102521.50;4999394;28;45452;-83
2022/01/27 04:15:38;;;;;;;;;66.33;51.00;;;;;4.04;72.52;102446.06;4999382;28;45463;-84
2022/01/27 04:18:04;;;;;;;;;69.33;50.00;;;;;4.43;73.10;102525.81;4999158;28;45338;-83
2022/01/27 04:20:30;;;;;;;;;63.33;46.33;;;;;4.39;73.17;102522.16;4985268;28;45928;-83
2022/01/27 04:22:55;;;;;;;;;62.33;46.00;;;;;4.39;73.21;102518.63;4979053;28;45285;-85
2022/01/27 04:25:21;;;;;;;;;53.00;44.00;;;;;4.22;73.40;102491.50;4979444;28;45356;-83
2022/01/27 04:27:53;;;;;;;;;66.00;51.33;;;;;4.34;73.04;102522.66;4979553;28;45246;-83
2022/01/27 04:30:21;;;;;;;;;62.33;47.33;;;;;4.18;73.15;102484.28;4979001;28;45451;-84
2022/01/27 04:32:58;;;;;;;;;46.67;41.00;;;;;4.11;72.72;102480.44;4986939;28;45453;-84
2022/01/27 04:35:27;;;;;;;;;61.00;51.00;;;;;3.84;73.37;102429.19;4989789;28;45230;-86
2022/01/27 04:38:33;;;;;;;;;64.00;51.00;;;;;4.31;73.55;102517.25;5008787;28;45381;-82
2022/01/27 04:41:08;;;;;;;;;67.00;47.00;;;;;3.84;73.46;102450.94;4985692;28;45412;-85
2022/01/27 04:43:45;;;;;;;;;67.67;49.33;;;;;4.07;73.32;102481.03;4963004;28;45448;-84
2022/01/27 04:46:36;;;;;;;;;68.67;50.67;;;;;4.17;73.66;102505.97;4996915;28;45420;-86
2022/01/27 04:49:04;;;;;;;;;47.67;44.00;;;;;4.25;73.16;102512.56;5000325;28;45495;-83
2022/01/27 04:51:30;;;;;;;;;66.00;47.00;;;;;4.31;73.41;102520.78;4999471;28;46101;-82
2022/01/27 04:56:28;;;;;;;;;65.67;48.33;;;;;4.25;73.65;102504.72;4997958;28;45254;-82
2022/01/27 04:58:59;;;;;;;;;62.67;50.67;;;;;4.27;73.50;102514.44;4998665;28;45324;-83
2022/01/27 05:01:47;;;;;;;;;57.00;43.67;;;;;3.50;73.73;102379.28;4987598;28;45609;-82
2022/01/27 05:04:16;;;;;;;;;62.67;46.67;;;;;4.18;73.88;102520.81;4983125;28;45420;-81
2022/01/27 05:06:42;;;;;;;;;58.67;49.00;;;;;4.17;74.07;102505.97;4984931;28;45413;-82
2022/01/27 05:09:07;;;;;;;;;54.33;45.33;;;;;4.04;74.20;102495.59;4978653;28;45204;-81
2022/01/27 05:11:43;;;;;;;;;64.00;50.67;;;;;4.14;74.15;102511.00;4990661;28;45367;-79
2022/01/27 05:14:24;;;;;;;;;61.67;47.33;;;;;3.59;73.92;102398.09;4999647;28;45488;-81
2022/01/27 05:16:50;;;;;;;;;58.33;47.33;;;;;4.16;74.18;102499.84;4986388;28;45328;-85
2022/01/27 05:19:16;;;;;;;;;51.33;45.00;;;;;3.59;74.06;102405.91;4989280;28;45136;-85
2022/01/27 05:21:42;;;;;;;;;62.67;50.67;;;;;3.64;73.94;102409.72;4980484;28;45393;-86
2022/01/27 05:24:08;;;;;;;;;55.67;45.00;;;;;4.16;74.31;102494.63;4987752;28;45220;-85
2022/01/27 05:26:34;;;;;;;;;59.00;44.00;;;;;4.14;74.29;102493.66;4999049;28;45273;-83
2022/01/27 05:29:01;;;;;;;;;65.67;48.00;;;;;3.86;74.26;102457.16;4979315;28;46948;-83
2022/01/27 05:31:27;;;;;;;;;56.00;47.00;;;;;3.93;74.54;102463.66;4988472;28;46358;-83
2022/01/27 05:33:52;;;;;;;;;64.00;50.00;;;;;4.18;74.19;102502.56;4989548;28;45453;-85
2022/01/27 05:36:18;;;;;;;;;58.00;45.33;;;;;3.87;73.94;102437.19;4994712;28;45408;-83
2022/01/27 05:38:43;;;;;;;;;66.33;48.67;;;;;3.98;74.25;102470.03;4993111;28;45446;-86
2022/01/27 05:41:08;;;;;;;;;57.33;45.00;;;;;4.15;74.44;102492.84;4982855;28;46405;-82
2022/01/27 05:43:34;;;;;;;;;67.33;46.00;;;;;4.18;73.85;102498.22;4990612;28;45469;-83
2022/01/27 05:46:00;;;;;;;;;58.00;46.67;;;;;3.85;73.89;102442.31;4998854;28;45219;-83
2022/01/27 05:48:26;;;;;;;;;66.33;49.67;;;;;3.45;73.83;102370.31;5002418;28;45469;-84
2022/01/27 05:50:51;;;;;;;;;48.67;44.67;;;;;3.42;73.79;102361.47;4985633;28;45295;-86
2022/01/27 05:53:17;;;;;;;;;61.67;49.67;;;;;4.14;74.81;102487.53;4978182;28;46040;-84
2022/01/27 05:55:43;;;;;;;;;59.33;45.33;;;;;4.20;74.17;102503.56;4978584;28;45287;-86
2022/01/27 05:58:08;;;;;;;;;60.33;46.00;;;;;3.96;74.24;102440.38;4986052;28;45274;-85
2022/01/27 06:00:34;;;;;;;;;62.67;45.33;;;;;4.10;74.09;102469.91;4985072;28;45237;-85
2022/01/27 06:02:59;;;;;;;;;56.67;46.00;;;;;3.79;74.09;102423.69;4998822;28;45232;-81
2022/01/27 06:05:26;;;;;;;;;58.00;45.00;;;;;4.05;73.79;102461.78;4988705;28;45618;-85
2022/01/27 06:07:52;;;;;;;;;62.67;49.00;;;;;4.23;73.89;102490.69;4990639;28;45432;-86
2022/01/27 06:10:18;;;;;;;;;60.33;44.33;;;;;3.81;73.41;102432.47;4994513;28;45521;-89
2022/01/27 06:12:52;;;;;;;;;46.67;39.33;;;;;4.20;73.33;102506.19;4996518;28;45314;-89
2022/01/27 06:15:18;;;;;;;;;47.00;39.67;;;;;3.86;73.72;102441.50;4980013;28;45507;-88
2022/01/27 06:17:44;;;;;;;;;59.33;45.00;;;;;4.23;73.81;102529.84;4988639;28;45579;-86
2022/01/27 06:20:10;;;;;;;;;45.00;38.33;;;;;4.26;73.79;102530.91;4987202;28;46010;-85
2022/01/27 06:22:36;;;;;;;;;56.67;44.67;;;;;3.90;73.24;102458.22;4995856;28;45199;-84
2022/01/27 06:25:02;;;;;;;;;60.00;45.67;;;;;4.23;74.20;102512.47;5003105;28;45353;-85
2022/01/27 06:27:28;;;;;;;;;59.67;44.00;;;;;4.26;73.73;102515.25;4983683;28;45435;-82
2022/01/27 06:29:53;;;;;;;;;58.33;46.00;;;;;3.87;73.73;102442.41;4978004;28;45429;-82
2022/01/27 06:32:18;;;;;;;;;55.67;44.00;;;;;3.83;73.65;102433.50;4960096;28;45459;-83
2022/01/27 06:34:44;;;;;;;;;50.00;43.00;;;;;4.10;73.47;102485.56;4987141;28;45220;-86
2022/01/27 06:37:11;;;;;;;;;61.67;46.33;;;;;4.30;73.64;102526.81;4981092;28;45167;-86
2022/01/27 06:39:36;;;;;;;;;58.00;43.33;;;;;4.20;74.09;102506.19;5000710;28;45318;-84
2022/01/27 06:42:02;;;;;;;;;63.00;43.67;;;;;3.85;73.72;102444.03;4982262;28;45783;-84
2022/01/27 06:44:28;;;;;;;;;54.00;42.33;;;;;4.32;73.48;102530.41;5000480;28;45468;-85
2022/01/27 06:46:53;;;;;;;;;59.67;47.00;;;;;4.31;73.45;102518.16;4998662;28;45379;-81
2022/01/27 06:49:19;;;;;;;;;49.67;42.33;;;;;4.23;73.99;102498.53;4982621;28;45446;-81
2022/01/27 06:51:45;;;;;;;;;64.67;47.67;;;;;4.18;73.68;102489.50;4990304;28;45379;-79
2022/01/27 06:54:11;;;;;;;;;56.67;44.33;;;;;4.29;73.76;102510.25;4990066;28;45415;-80
2022/01/27 06:56:37;;;;;;;;;57.67;39.67;;;;;4.35;73.37;102525.34;4998981;28;45444;-82
2022/01/27 06:59:03;;;;;;;;;56.33;43.33;;;;;4.17;73.43;102493.81;4984916;28;46399;-82
2022/01/27 07:01:28;;;;;;;;;59.67;43.67;;;;;4.14;73.49;102484.91;4993318;28;45501;-83
2022/01/27 07:03:54;;;;;;;;;52.67;42.00;;;;;4.42;73.08;102526.63;4998706;28;45479;-83
2022/01/27 07:06:19;;;;;;;;;49.00;39.00;;;;;4.49;73.32;102544.47;4995768;28;45514;-85
2022/01/27 07:08:45;;;;;;;;;45.00;38.67;;;;;4.19;73.61;102479.19;4980037;28;45379;-84
2022/01/27 07:11:10;;;;;;;;;60.33;47.33;;;;;4.40;72.97;102521.34;4980499;28;45321;-84
2022/01/27 07:13:40;;;;;;;;;62.00;41.33;;;;;4.10;72.66;102456.88;4980438;28;45259;-85
2022/01/27 07:16:07;;;;;;;;;60.00;45.00;;;;;4.54;73.04;102548.25;4997412;28;45342;-86
2022/01/27 07:18:32;;;;;;;;;60.67;47.00;;;;;4.42;72.94;102505.75;4999767;28;45390;-83
2022/01/27 07:20:57;;;;;;;;;56.67;42.00;;;;;4.39;73.34;102522.16;4999642;28;45240;-85
2022/01/27 07:23:23;;;;;;;;;51.33;42.00;;;;;4.15;72.79;102468.47;4999543;28;45359;-83
2022/01/27 07:25:48;;;;;;;;;53.00;39.67;;;;;4.20;72.87;102469.66;4999880;28;45301;-84
2022/01/27 07:28:14;;;;;;;;;55.00;43.67;;;;;4.28;72.65;102476.22;4999621;28;45368;-83
2022/01/27 07:30:39;;;;;;;;;57.00;40.00;;;;;4.12;72.72;102460.47;4997676;28;45175;-85
2022/01/27 07:33:04;;;;;;;;;59.33;44.33;;;;;4.39;72.89;102514.31;4981450;28;45425;-84
2022/01/27 07:35:30;;;;;;;;;52.67;45.33;;;;;3.72;73.12;102396.34;4990885;28;45214;-83
2022/01/27 07:37:55;;;;;;;;;65.00;44.00;;;;;4.11;72.91;102454.34;4980399;28;45554;-84
2022/01/27 07:40:21;;;;;;;;;49.33;42.67;;;;;4.33;72.60;102494.78;4979805;28;45482;-83
2022/01/27 07:42:47;;;;;;;;;48.00;41.00;;;;;4.29;72.89;102494.59;4999485;28;45308;-82
2022/01/27 07:45:13;;;;;;;;;48.67;40.67;;;;;4.48;72.68;102527.03;4998873;28;45377;-83
2022/01/27 07:47:38;;;;;;;;;48.67;37.33;;;;;4.51;72.99;102517.66;4999440;28;45415;-84
2022/01/27 07:50:04;;;;;;;;;49.00;42.00;;;;;3.77;72.91;102401.84;4999236;28;45440;-84
2022/01/27 07:52:30;;;;;;;;;64.33;45.00;;;;;4.35;72.87;102506.19;4997503;28;45417;-84
2022/01/27 07:54:55;;;;;;;;;53.00;42.33;;;;;4.33;72.58;102498.28;4979765;28;45405;-84
2022/01/27 07:57:21;;;;;;;;;53.33;46.33;;;;;4.23;72.98;102472.44;4980040;28;45267;-84
2022/01/27 07:59:46;;;;;;;;;56.00;45.00;;;;;4.12;72.52;102455.25;4979675;28;45253;-84
2022/01/27 08:02:12;;;;;;;;;47.33;39.00;;;;;3.90;72.47;102416.50;4979626;28;45296;-83
2022/01/27 08:04:38;;;;;;;;;46.33;40.67;;;;;3.97;72.70;102424.81;4980511;28;45461;-84
2022/01/27 08:07:04;;;;;;;;;57.00;44.67;;;;;3.85;72.46;102413.63;4980378;28;45368;-83
2022/01/27 08:09:31;;;;;;;;;60.67;43.33;;;;;4.52;73.07;102535.13;4970709;28;45223;-82
2022/01/27 08:11:56;;;;;;;;;60.67;48.00;;;;;4.39;72.32;102514.31;4986203;28;45517;-85
2022/01/27 08:14:22;;;;;;;;;46.00;40.33;;;;;3.69;72.72;102390.94;4980903;28;45397;-85
2022/01/27 08:16:48;;;;;;;;;57.33;46.00;;;;;4.57;72.59;102531.09;4980345;28;45322;-83
2022/01/27 08:19:14;;;;;;;;;55.33;42.33;;;;;4.59;72.94;102539.00;4979496;28;45393;-83
2022/01/27 08:21:39;;;;;;;;;51.00;44.33;;;;;4.55;72.42;102537.00;4979307;28;45390;-85
2022/01/27 08:24:05;;;;;;;;;35.33;29.33;;;;;4.48;72.65;102533.16;4979457;28;45484;-85
2022/01/27 08:29:08;;;;;;;;;59.33;46.33;;;;;4.66;72.35;102543.78;4979205;28;45216;-82
2022/01/27 08:31:55;;;;;;;;;48.33;38.67;;;;;4.20;72.53;102472.28;4979508;28;45246;-84
2022/01/27 08:34:35;;;;;;;;;45.00;40.33;;;;;3.91;72.39;102420.94;4980769;28;45282;-83
2022/01/27 08:37:04;;;;;;;;;53.67;44.00;;;;;4.69;72.15;102553.50;4980736;28;46177;-85
2022/01/27 08:39:30;;;;;;;;;56.00;42.67;;;;;4.69;71.74;102553.50;4980827;28;45461;-82
2022/01/27 08:41:56;;;;;;;;;52.00;42.00;;;;;4.63;72.10;102540.97;4962146;28;45346;-83
2022/01/27 08:44:22;;;;;;;;;49.67;42.00;;;;;4.37;72.47;102483.69;4966146;28;45347;-82
2022/01/27 08:46:48;;;;;;;;;56.00;43.67;;;;;4.56;72.47;102517.94;4972024;28;46632;-82
2022/01/27 08:49:13;;;;;;;;;51.33;42.00;;;;;4.47;72.58;102501.75;4978711;28;45437;-85
2022/01/27 08:51:39;;;;;;;;;55.67;45.33;;;;;4.50;72.25;102496.69;4979120;28;45415;-83
2022/01/27 08:54:04;;;;;;;;;62.00;50.67;;;;;4.75;72.43;102535.63;4979249;28;45456;-84
2022/01/27 08:56:31;;;;;;;;;60.33;47.00;;;;;4.79;72.00;102541.09;4978826;28;46411;-83
2022/01/27 08:58:57;;;;;;;;;63.00;51.00;;;;;4.46;72.26;102471.19;4978847;28;45287;-83
2022/01/27 09:01:24;;;;;;;;;54.00;42.67;;;;;4.38;72.00;102452.50;4978500;28;45151;-84
2022/01/27 09:03:50;;;;;;;;;63.33;47.00;;;;;4.42;71.54;102448.38;4978742;28;45433;-83
2022/01/27 09:06:18;;;;;;;;;47.67;38.33;;;;;4.95;71.48;102532.47;4996361;28;47844;-84
2022/01/27 09:08:45;;;;;;;;;57.67;44.33;;;;;4.53;71.64;102445.56;4998165;28;45416;-85
2022/01/27 09:11:11;;;;;;;;;54.33;43.00;;;;;4.39;71.89;102423.00;4980682;28;45267;-84
2022/01/27 09:13:38;;;;;;;;;45.67;41.33;;;;;4.97;71.59;102502.13;4992747;28;45525;-84
2022/01/27 09:16:05;;;;;;;;;62.33;48.67;;;;;5.08;71.63;102524.53;4978322;28;46094;-84
2022/01/27 09:18:32;;;;;;;;;51.33;42.67;;;;;5.12;71.40;102521.31;4978523;28;45578;-84
2022/01/27 09:21:00;;;;;;;;;41.00;31.33;;;;;5.21;71.23;102509.53;4984837;28;45423;-83
2022/01/27 09:23:26;;;;;;;;;59.33;46.33;;;;;5.04;70.81;102470.31;4983086;28;45596;-83
2022/01/27 09:25:56;;;;;;;;;60.00;44.00;;;;;4.85;70.19;102420.47;4960611;28;47816;-83
2022/01/27 09:28:22;;;;;;;;;60.33;46.67;;;;;4.86;70.76;102406.59;4978432;28;45288;-82
2022/01/27 09:30:47;;;;;;;;;57.67;43.67;;;;;5.52;69.96;102513.13;4980193;28;45415;-85
2022/01/27 09:33:13;;;;;;;;;50.33;41.33;;;;;5.59;69.70;102512.66;4980465;28;45460;-84
2022/01/27 09:35:39;;;;;;;;;50.00;43.00;;;;;5.58;69.98;102510.81;4993105;28;45423;-84
2022/01/27 09:38:05;;;;;;;;;60.33;48.67;;;;;5.45;69.58;102448.22;4979718;28;45401;-84
2022/01/27 09:40:33;;;;;;;;;64.33;49.33;;;;;5.61;68.63;102460.44;4978640;28;45468;-84
2022/01/27 09:43:00;;;;;;;;;59.33;44.33;;;;;5.89;68.62;102502.97;4978731;28;45468;-84
2022/01/27 09:45:28;;;;;;;;;60.33;39.33;;;;;6.08;68.94;102525.84;4978159;28;45534;-85
2022/01/27 09:47:56;;;;;;;;;59.00;45.33;;;;;5.76;68.25;102461.25;4978056;28;45423;-83
2022/01/27 09:52:54;;;;;;;;;57.67;41.67;;;;;5.81;67.97;102478.13;4978790;28;45398;-83
2022/01/27 09:55:21;;;;;;;;;63.67;45.67;;;;;5.53;67.85;102414.69;4989717;28;46068;-84
2022/01/27 09:57:46;;;;;;;;;30.67;23.00;;;;;5.97;68.14;102479.88;4993586;28;45375;-84
2022/01/27 10:00:13;;;;;;;;;53.67;42.67;;;;;5.78;68.04;102446.59;4999575;28;45223;-84
2022/01/27 10:03:00;;;;;;;;;51.00;42.00;;;;;6.04;67.77;102476.75;4999899;28;45231;-85
2022/01/27 10:05:26;;;;;;;;;60.33;46.33;;;;;5.98;68.00;102442.44;4997113;28;45507;-84
2022/01/27 10:08:02;;;;;;;;;47.00;41.67;;;;;5.70;67.59;102380.78;4993764;28;45310;-84
2022/01/27 10:10:28;;;;;;;;;48.00;42.00;;;;;6.47;66.49;102487.78;5001186;28;45417;-84
2022/01/27 10:12:55;;;;;;;;;62.67;48.00;;;;;6.67;66.89;102480.94;5001283;28;45403;-85
2022/01/27 10:15:23;;;;;;;;;57.00;44.67;;;;;6.55;65.63;102417.50;4999088;28;45385;-85
2022/01/27 10:18:06;;;;;;;;;48.25;42.50;;;;;6.64;65.09;102417.97;5000117;28;45424;-83
2022/01/27 10:20:32;;;;;;;;;55.33;40.67;;;;;6.74;65.49;102425.44;5000343;28;45159;-84
2022/01/27 10:23:19;;;;;;;;;54.75;45.00;;;;;7.18;64.70;102499.22;5000701;28;45434;-83
2022/01/27 10:25:56;;;;;;;;;52.00;40.33;;;;;6.62;65.28;102422.22;5000503;28;46219;-84
2022/01/27 10:31:05;;;;;;;;;62.00;44.33;;;;;7.18;65.12;102531.56;4994623;28;45431;-80
2022/01/27 10:34:04;;;;;;;;;49.67;40.33;;;;;7.07;65.29;102507.47;4980473;28;45692;-82
2022/01/27 10:36:36;;;;;;;;;44.75;31.25;;;;;6.95;65.92;102501.59;4988793;28;46296;-83
2022/01/27 10:39:06;;;;;;;;;61.33;46.00;;;;;6.89;66.27;102497.75;4981493;28;45352;-83
2022/01/27 10:41:36;;;;;;;;;59.67;43.33;;;;;6.22;66.26;102401.84;4981040;28;45266;-85
2022/01/27 10:44:15;;;;;;;;;52.33;41.00;;;;;6.70;66.09;102473.28;4980904;28;45238;-83
2022/01/27 10:47:15;;;;;;;;;53.25;40.75;;;;;6.71;66.58;102482.94;4981329;28;46469;-84
2022/01/27 10:49:48;;;;;;;;;56.00;45.67;;;;;6.47;66.45;102458.09;4980538;28;45467;-83
2022/01/27 10:52:43;;;;;;;;;59.00;43.33;;;;;6.51;66.63;102468.81;5000674;28;45329;-84
2022/01/27 10:55:14;;;;;;;;;46.00;40.33;;;;;6.74;67.18;102509.25;4981836;28;45228;-84
2022/01/27 10:57:47;;;;;;;;;47.75;42.50;;;;;6.55;66.82;102467.25;4980112;28;46054;-83
2022/01/27 11:00:17;;;;;;;;;52.67;43.33;;;;;6.81;67.13;102507.88;4998196;28;45440;-83
2022/01/27 11:03:02;;;;;;;;;48.67;40.00;;;;;6.63;66.47;102483.34;5000590;28;45246;-84
2022/01/27 11:05:34;;;;;;;;;49.33;41.67;;;;;6.73;66.20;102496.09;5001649;28;45255;-85
2022/01/27 11:08:00;;;;;;;;;52.67;42.00;;;;;6.70;66.64;102485.44;4997461;28;46826;-84
2022/01/27 11:10:26;;;;;;;;;58.00;44.33;;;;;6.17;66.21;102398.13;5004820;28;45425;-86
2022/01/27 11:12:53;;;;;;;;;59.33;44.00;;;;;6.57;66.77;102458.63;4993997;28;45413;-85
2022/01/27 11:15:20;;;;;;;;;57.00;41.67;;;;;6.45;67.13;102438.81;4980313;28;45200;-90
2022/01/27 11:17:48;;;;;;;;;55.67;44.00;;;;;6.74;67.24;102469.97;4984981;28;46109;-85
2022/01/27 11:20:32;;;;;;;;;59.00;50.33;;;;;6.84;66.45;102495.81;4994291;28;45309;-91
2022/01/27 11:28:01;;;;;;;;;52.33;42.00;;;;;7.12;66.01;102499.81;5002212;28;45302;-86
2022/01/27 11:30:56;;;;;;;;;53.67;44.00;;;;;7.17;66.24;102493.09;5001808;28;45347;-81
2022/01/27 11:33:33;;;;;;;;;47.33;38.67;;;;;7.12;66.05;102476.22;4970124;28;45432;-84
2022/01/27 11:36:11;;;;;;;;;57.33;47.33;;;;;7.28;66.30;102488.38;5001204;28;45215;-84
2022/01/27 11:38:45;;;;;;;;;59.25;44.50;;;;;6.98;66.06;102431.03;5004425;28;45495;-86
2022/01/27 11:41:39;;;;;;;;;58.67;44.33;;;;;7.33;65.57;102477.25;5005562;28;45317;-84
2022/01/27 11:44:24;;;;;;;;;48.33;41.67;;;;;7.10;66.10;102436.84;4992027;28;45404;-82
2022/01/27 11:47:09;;;;;;;;;51.25;41.25;;;;;7.50;65.21;102471.94;5003126;28;45351;-84
2022/01/27 11:50:22;;;;;;;;;44.75;34.75;;;;;7.51;65.86;102460.63;4982967;28;45301;-84
2022/01/27 11:52:52;;;;;;;;;60.50;45.25;;;;;7.53;65.73;102454.63;4979303;28;45396;-83
2022/01/27 11:55:23;;;;;;;;;49.00;37.50;;;;;7.66;65.04;102448.25;4988903;28;45534;-82
2022/01/27 11:57:49;;;;;;;;;49.75;44.75;;;;;7.45;64.95;102394.81;4994436;28;45203;-82
2022/01/27 12:00:18;;;;;;;;;54.25;44.75;;;;;7.54;64.97;102396.13;4996315;28;46066;-82
2022/01/27 12:03:02;;;;;;;;;55.00;42.00;;;;;7.86;64.82;102446.53;4994739;28;45502;-84
2022/01/27 12:05:31;;;;;;;;;50.25;40.50;;;;;7.46;65.33;102399.22;4986211;28;45528;-81
2022/01/27 12:08:09;;;;;;;;;42.75;37.75;;;;;7.72;64.98;102452.06;4999647;28;45378;-80
2022/01/27 12:10:46;;;;;;;;;54.00;44.00;;;;;7.76;65.10;102445.22;5001772;28;45266;-87
2022/01/27 12:18:59;;;;;;;;;42.75;36.25;;;;;7.84;65.03;102458.69;4991697;28;45328;-84